sensor_id;sensor_type;location;lat;lon;timestamp;temperature;humidity
2721;DHT22;1368;49.484;11.112;2024-03-02T00:00:51;7.80;99.90
2721;DHT22;1368;49.484;11.112;2024-03-02T00:03:18;7.90;99.90
2721;DHT22;1368;49.484;11.112;2024-03-02T00:05:47;7.60;99.90
2721;DHT22;1368;49.484;11.112;2024-03-02T00:08:22;7.70;99.90
2721;DHT22;1368;49.484;11.112;2024-03-02T00:10:48;7.70;99.90
2721;DHT22;1368;49.484;11.112;2024-03-02T00:13:14;7.70;99.90
2721;DHT22;1368;49.484;11.112;2024-03-02T00:16:14;7.80;99.90
2721;DHT22;1368;49.484;11.112;2024-03-02T00:18:34;7.90;99.90
2721;DHT22;1368;49.484;11.112;2024-03-02T00:21:01;7.90;99.90
2721;DHT22;1368;49.484;11.112;2024-03-02T00:23:30;7.90;99.90
2721;DHT22;1368;49.484;11.112;2024-03-02T00:25:58;8.10;99.90
2721;DHT22;1368;49.484;11.112;2024-03-02T00:28:26;8.20;99.90
2721;DHT22;1368;49.484;11.112;2024-03-02T00:31:01;8.20;99.90
2721;DHT22;1368;49.484;11.112;2024-03-02T00:33:38;8.20;99.90
2721;DHT22;1368;49.484;11.112;2024-03-02T00:36:06;8.40;99.90
2721;DHT22;1368;49.484;11.112;2024-03-02T00:38:33;8.50;99.90
2721;DHT22;1368;49.484;11.112;2024-03-02T00:41:07;8.60;99.90
2721;DHT22;1368;49.484;11.112;2024-03-02T00:43:47;8.30;99.90
2721;DHT22;1368;49.484;11.112;2024-03-02T00:46:17;8.40;99.90
2721;DHT22;1368;49.484;11.112;2024-03-02T00:48:57;8.60;99.90
2721;DHT22;1368;49.484;11.112;2024-03-02T00:51:27;8.70;99.90
2721;DHT22;1368;49.484;11.112;2024-03-02T00:53:54;8.70;99.90
2721;DHT22;1368;49.484;11.112;2024-03-02T00:56:23;8.70;99.90
2721;DHT22;1368;49.484;11.112;2024-03-02T00:58:49;8.80;99.90
2721;DHT22;1368;49.484;11.112;2024-03-02T01:01:14;9.00;99.90
2721;DHT22;1368;49.484;11.112;2024-03-02T01:03:41;9.20;99.90
2721;DHT22;1368;49.484;11.112;2024-03-02T01:06:07;9.30;99.90
2721;DHT22;1368;49.484;11.112;2024-03-02T01:08:36;9.30;99.90
2721;DHT22;1368;49.484;11.112;2024-03-02T01:11:03;9.40;99.90
2721;DHT22;1368;49.484;11.112;2024-03-02T01:13:29;9.50;99.90
2721;DHT22;1368;49.484;11.112;2024-03-02T01:15:55;9.50;99.90
2721;DHT22;1368;49.484;11.112;2024-03-02T01:18:20;9.50;99.90
2721;DHT22;1368;49.484;11.112;2024-03-02T01:20:47;9.60;99.90
2721;DHT22;1368;49.484;11.112;2024-03-02T01:23:13;9.60;99.90
2721;DHT22;1368;49.484;11.112;2024-03-02T01:25:39;9.60;99.90
2721;DHT22;1368;49.484;11.112;2024-03-02T01:28:05;9.60;99.90
2721;DHT22;1368;49.484;11.112;2024-03-02T01:30:31;9.50;99.90
2721;DHT22;1368;49.484;11.112;2024-03-02T01:32:56;9.50;99.90
2721;DHT22;1368;49.484;11.112;2024-03-02T01:35:24;9.50;99.90
2721;DHT22;1368;49.484;11.112;2024-03-02T01:37:49;9.40;99.90
2721;DHT22;1368;49.484;11.112;2024-03-02T01:40:15;9.20;99.90
2721;DHT22;1368;49.484;11.112;2024-03-02T01:42:41;9.10;99.90
2721;DHT22;1368;49.484;11.112;2024-03-02T01:45:07;9.10;99.90
2721;DHT22;1368;49.484;11.112;2024-03-02T01:47:34;9.10;99.90
2721;DHT22;1368;49.484;11.112;2024-03-02T01:50:00;9.20;99.90
2721;DHT22;1368;49.484;11.112;2024-03-02T01:52:26;9.20;99.90
2721;DHT22;1368;49.484;11.112;2024-03-02T01:54:51;9.20;99.90
2721;DHT22;1368;49.484;11.112;2024-03-02T01:57:17;9.10;99.90
2721;DHT22;1368;49.484;11.112;2024-03-02T01:59:43;9.00;99.90
2721;DHT22;1368;49.484;11.112;2024-03-02T02:02:09;9.00;99.90
2721;DHT22;1368;49.484;11.112;2024-03-02T02:04:35;9.10;99.90
2721;DHT22;1368;49.484;11.112;2024-03-02T02:07:00;9.10;99.90
2721;DHT22;1368;49.484;11.112;2024-03-02T02:09:26;9.10;99.90
2721;DHT22;1368;49.484;11.112;2024-03-02T02:11:52;9.10;99.90
2721;DHT22;1368;49.484;11.112;2024-03-02T02:14:18;9.20;99.90
2721;DHT22;1368;49.484;11.112;2024-03-02T02:16:44;9.20;99.90
2721;DHT22;1368;49.484;11.112;2024-03-02T02:19:09;9.40;99.90
2721;DHT22;1368;49.484;11.112;2024-03-02T02:21:35;9.00;99.90
2721;DHT22;1368;49.484;11.112;2024-03-02T02:24:01;9.00;99.90
2721;DHT22;1368;49.484;11.112;2024-03-02T02:26:29;9.10;99.90
2721;DHT22;1368;49.484;11.112;2024-03-02T02:28:54;9.50;99.90
2721;DHT22;1368;49.484;11.112;2024-03-02T02:31:20;9.10;99.90
2721;DHT22;1368;49.484;11.112;2024-03-02T02:33:45;9.10;99.90
2721;DHT22;1368;49.484;11.112;2024-03-02T02:36:11;9.10;99.90
2721;DHT22;1368;49.484;11.112;2024-03-02T02:38:40;9.10;99.90
2721;DHT22;1368;49.484;11.112;2024-03-02T02:41:08;9.10;99.90
2721;DHT22;1368;49.484;11.112;2024-03-02T02:43:34;9.30;99.90
2721;DHT22;1368;49.484;11.112;2024-03-02T02:45:59;9.30;99.90
2721;DHT22;1368;49.484;11.112;2024-03-02T02:48:25;9.40;99.90
2721;DHT22;1368;49.484;11.112;2024-03-02T02:50:50;9.30;99.90
2721;DHT22;1368;49.484;11.112;2024-03-02T02:53:16;9.20;99.90
2721;DHT22;1368;49.484;11.112;2024-03-02T02:55:42;9.30;99.90
2721;DHT22;1368;49.484;11.112;2024-03-02T02:58:09;9.40;99.90
2721;DHT22;1368;49.484;11.112;2024-03-02T03:00:34;9.40;99.90
2721;DHT22;1368;49.484;11.112;2024-03-02T03:03:01;9.50;99.90
2721;DHT22;1368;49.484;11.112;2024-03-02T03:05:27;9.50;99.90
2721;DHT22;1368;49.484;11.112;2024-03-02T03:07:53;9.60;99.90
2721;DHT22;1368;49.484;11.112;2024-03-02T03:10:18;9.60;99.90
2721;DHT22;1368;49.484;11.112;2024-03-02T03:12:47;9.60;99.90
2721;DHT22;1368;49.484;11.112;2024-03-02T03:15:12;9.60;99.90
2721;DHT22;1368;49.484;11.112;2024-03-02T03:17:38;9.60;99.90
2721;DHT22;1368;49.484;11.112;2024-03-02T03:20:04;9.50;99.90
2721;DHT22;1368;49.484;11.112;2024-03-02T03:22:31;9.50;99.90
2721;DHT22;1368;49.484;11.112;2024-03-02T03:24:57;9.40;99.90
2721;DHT22;1368;49.484;11.112;2024-03-02T03:27:22;9.30;99.90
2721;DHT22;1368;49.484;11.112;2024-03-02T03:29:48;9.20;99.90
2721;DHT22;1368;49.484;11.112;2024-03-02T03:32:14;9.20;99.90
2721;DHT22;1368;49.484;11.112;2024-03-02T03:34:39;9.00;99.90
2721;DHT22;1368;49.484;11.112;2024-03-02T03:37:05;9.00;99.90
2721;DHT22;1368;49.484;11.112;2024-03-02T03:39:31;9.00;99.90
2721;DHT22;1368;49.484;11.112;2024-03-02T03:41:59;8.60;99.90
2721;DHT22;1368;49.484;11.112;2024-03-02T03:44:24;8.60;99.90
2721;DHT22;1368;49.484;11.112;2024-03-02T03:46:50;8.40;99.90
2721;DHT22;1368;49.484;11.112;2024-03-02T03:49:15;8.10;99.90
2721;DHT22;1368;49.484;11.112;2024-03-02T03:51:41;8.30;99.90
2721;DHT22;1368;49.484;11.112;2024-03-02T03:54:06;8.40;99.90
2721;DHT22;1368;49.484;11.112;2024-03-02T03:56:32;8.30;99.90
2721;DHT22;1368;49.484;11.112;2024-03-02T03:58:57;8.40;99.90
2721;DHT22;1368;49.484;11.112;2024-03-02T04:01:25;8.40;99.90
2721;DHT22;1368;49.484;11.112;2024-03-02T04:03:50;9.10;99.90
2721;DHT22;1368;49.484;11.112;2024-03-02T04:06:16;8.50;99.90
2721;DHT22;1368;49.484;11.112;2024-03-02T04:08:42;8.80;99.90
2721;DHT22;1368;49.484;11.112;2024-03-02T04:11:09;8.80;99.90
2721;DHT22;1368;49.484;11.112;2024-03-02T04:13:35;8.80;99.90
2721;DHT22;1368;49.484;11.112;2024-03-02T04:16:01;8.90;99.90
2721;DHT22;1368;49.484;11.112;2024-03-02T04:18:26;8.50;99.90
2721;DHT22;1368;49.484;11.112;2024-03-02T04:20:52;8.50;99.90
2721;DHT22;1368;49.484;11.112;2024-03-02T04:23:17;8.50;99.90
2721;DHT22;1368;49.484;11.112;2024-03-02T04:25:43;8.30;99.90
2721;DHT22;1368;49.484;11.112;2024-03-02T04:28:09;8.30;99.90
2721;DHT22;1368;49.484;11.112;2024-03-02T04:30:34;8.20;99.90
2721;DHT22;1368;49.484;11.112;2024-03-02T04:33:00;7.90;99.90
2721;DHT22;1368;49.484;11.112;2024-03-02T04:35:26;7.80;99.90
2721;DHT22;1368;49.484;11.112;2024-03-02T04:37:51;7.70;99.90
2721;DHT22;1368;49.484;11.112;2024-03-02T04:40:17;7.50;99.90
2721;DHT22;1368;49.484;11.112;2024-03-02T04:42:43;7.50;99.90
2721;DHT22;1368;49.484;11.112;2024-03-02T04:45:08;7.40;99.90
2721;DHT22;1368;49.484;11.112;2024-03-02T04:47:34;7.50;99.90
2721;DHT22;1368;49.484;11.112;2024-03-02T04:50:00;7.60;99.90
2721;DHT22;1368;49.484;11.112;2024-03-02T04:52:25;7.90;99.90
2721;DHT22;1368;49.484;11.112;2024-03-02T04:54:51;8.00;99.90
2721;DHT22;1368;49.484;11.112;2024-03-02T04:57:35;7.90;99.90
2721;DHT22;1368;49.484;11.112;2024-03-02T05:00:01;8.20;99.90
2721;DHT22;1368;49.484;11.112;2024-03-02T05:02:26;7.80;99.90
2721;DHT22;1368;49.484;11.112;2024-03-02T05:04:52;7.60;99.90
2721;DHT22;1368;49.484;11.112;2024-03-02T05:07:17;7.60;99.90
2721;DHT22;1368;49.484;11.112;2024-03-02T05:09:43;7.60;99.90
2721;DHT22;1368;49.484;11.112;2024-03-02T05:12:09;7.40;99.90
2721;DHT22;1368;49.484;11.112;2024-03-02T05:14:48;7.30;99.90
2721;DHT22;1368;49.484;11.112;2024-03-02T05:17:14;7.30;99.90
2721;DHT22;1368;49.484;11.112;2024-03-02T05:19:39;7.30;99.90
2721;DHT22;1368;49.484;11.112;2024-03-02T05:22:05;7.10;99.90
2721;DHT22;1368;49.484;11.112;2024-03-02T05:24:31;7.10;99.90
2721;DHT22;1368;49.484;11.112;2024-03-02T05:26:56;7.20;99.90
2721;DHT22;1368;49.484;11.112;2024-03-02T05:29:22;7.20;99.90
2721;DHT22;1368;49.484;11.112;2024-03-02T05:31:48;7.30;99.90
2721;DHT22;1368;49.484;11.112;2024-03-02T05:34:14;7.30;99.90
2721;DHT22;1368;49.484;11.112;2024-03-02T05:36:39;7.20;99.90
2721;DHT22;1368;49.484;11.112;2024-03-02T05:39:05;7.40;99.90
2721;DHT22;1368;49.484;11.112;2024-03-02T05:41:34;7.40;99.90
2721;DHT22;1368;49.484;11.112;2024-03-02T05:44:00;7.30;99.90
2721;DHT22;1368;49.484;11.112;2024-03-02T05:46:25;7.40;99.90
2721;DHT22;1368;49.484;11.112;2024-03-02T05:48:51;7.40;99.90
2721;DHT22;1368;49.484;11.112;2024-03-02T05:51:16;8.00;99.90
2721;DHT22;1368;49.484;11.112;2024-03-02T05:53:42;7.50;99.90
2721;DHT22;1368;49.484;11.112;2024-03-02T05:56:08;7.40;99.90
2721;DHT22;1368;49.484;11.112;2024-03-02T05:58:34;7.40;99.90
2721;DHT22;1368;49.484;11.112;2024-03-02T06:01:18;7.10;99.90
2721;DHT22;1368;49.484;11.112;2024-03-02T06:03:44;7.10;99.90
2721;DHT22;1368;49.484;11.112;2024-03-02T06:06:09;7.20;99.90
2721;DHT22;1368;49.484;11.112;2024-03-02T06:08:35;7.30;99.90
2721;DHT22;1368;49.484;11.112;2024-03-02T06:11:01;7.20;99.90
2721;DHT22;1368;49.484;11.112;2024-03-02T06:13:26;7.10;99.90
2721;DHT22;1368;49.484;11.112;2024-03-02T06:15:52;7.10;99.90
2721;DHT22;1368;49.484;11.112;2024-03-02T06:18:18;7.50;99.90
2721;DHT22;1368;49.484;11.112;2024-03-02T06:20:43;7.20;99.90
2721;DHT22;1368;49.484;11.112;2024-03-02T06:23:09;7.10;99.90
2721;DHT22;1368;49.484;11.112;2024-03-02T06:25:34;7.10;99.90
2721;DHT22;1368;49.484;11.112;2024-03-02T06:28:00;7.20;99.90
2721;DHT22;1368;49.484;11.112;2024-03-02T06:30:26;7.30;99.90
2721;DHT22;1368;49.484;11.112;2024-03-02T06:32:51;7.20;99.90
2721;DHT22;1368;49.484;11.112;2024-03-02T06:35:17;7.30;99.90
2721;DHT22;1368;49.484;11.112;2024-03-02T06:37:42;7.30;99.90
2721;DHT22;1368;49.484;11.112;2024-03-02T06:40:08;7.30;99.90
2721;DHT22;1368;49.484;11.112;2024-03-02T06:42:35;7.30;99.90
2721;DHT22;1368;49.484;11.112;2024-03-02T06:45:01;7.40;99.90
2721;DHT22;1368;49.484;11.112;2024-03-02T06:47:26;7.40;99.90
2721;DHT22;1368;49.484;11.112;2024-03-02T06:49:52;7.50;99.90
2721;DHT22;1368;49.484;11.112;2024-03-02T06:52:18;7.60;99.90
2721;DHT22;1368;49.484;11.112;2024-03-02T06:54:44;7.80;99.90
2721;DHT22;1368;49.484;11.112;2024-03-02T06:57:09;7.70;99.90
2721;DHT22;1368;49.484;11.112;2024-03-02T06:59:35;7.70;99.90
2721;DHT22;1368;49.484;11.112;2024-03-02T07:02:00;8.00;99.90
2721;DHT22;1368;49.484;11.112;2024-03-02T07:04:27;7.90;99.90
2721;DHT22;1368;49.484;11.112;2024-03-02T07:06:52;8.00;99.90
2721;DHT22;1368;49.484;11.112;2024-03-02T07:09:18;8.20;99.90
2721;DHT22;1368;49.484;11.112;2024-03-02T07:11:48;8.20;99.90
2721;DHT22;1368;49.484;11.112;2024-03-02T07:14:13;8.20;99.90
2721;DHT22;1368;49.484;11.112;2024-03-02T07:16:39;8.50;99.90
2721;DHT22;1368;49.484;11.112;2024-03-02T07:19:06;8.70;99.90
2721;DHT22;1368;49.484;11.112;2024-03-02T07:21:31;9.40;99.90
2721;DHT22;1368;49.484;11.112;2024-03-02T07:23:58;9.20;99.90
2721;DHT22;1368;49.484;11.112;2024-03-02T07:26:24;9.50;99.90
2721;DHT22;1368;49.484;11.112;2024-03-02T07:28:50;9.80;99.90
2721;DHT22;1368;49.484;11.112;2024-03-02T07:31:16;10.60;99.90
2721;DHT22;1368;49.484;11.112;2024-03-02T07:33:44;11.40;99.90
2721;DHT22;1368;49.484;11.112;2024-03-02T07:36:11;11.90;99.90
2721;DHT22;1368;49.484;11.112;2024-03-02T07:38:36;12.70;99.90
2721;DHT22;1368;49.484;11.112;2024-03-02T07:41:02;13.40;99.90
2721;DHT22;1368;49.484;11.112;2024-03-02T07:43:30;13.70;99.90
2721;DHT22;1368;49.484;11.112;2024-03-02T07:45:56;13.10;99.90
2721;DHT22;1368;49.484;11.112;2024-03-02T07:48:22;12.20;99.90
2721;DHT22;1368;49.484;11.112;2024-03-02T07:50:48;11.90;99.90
2721;DHT22;1368;49.484;11.112;2024-03-02T07:53:13;11.00;99.90
2721;DHT22;1368;49.484;11.112;2024-03-02T07:55:39;10.80;99.90
2721;DHT22;1368;49.484;11.112;2024-03-02T07:58:06;10.60;99.90
2721;DHT22;1368;49.484;11.112;2024-03-02T08:00:32;10.60;99.90
2721;DHT22;1368;49.484;11.112;2024-03-02T08:02:57;10.90;99.90
2721;DHT22;1368;49.484;11.112;2024-03-02T08:05:23;10.80;99.90
2721;DHT22;1368;49.484;11.112;2024-03-02T08:07:49;10.60;99.90
2721;DHT22;1368;49.484;11.112;2024-03-02T08:10:18;10.30;99.90
2721;DHT22;1368;49.484;11.112;2024-03-02T08:12:43;10.10;99.90
2721;DHT22;1368;49.484;11.112;2024-03-02T08:15:09;10.30;99.90
2721;DHT22;1368;49.484;11.112;2024-03-02T08:17:35;10.40;99.90
2721;DHT22;1368;49.484;11.112;2024-03-02T08:20:00;10.00;99.90
2721;DHT22;1368;49.484;11.112;2024-03-02T08:22:26;10.20;99.90
2721;DHT22;1368;49.484;11.112;2024-03-02T08:24:52;10.00;99.90
2721;DHT22;1368;49.484;11.112;2024-03-02T08:27:17;10.10;99.90
2721;DHT22;1368;49.484;11.112;2024-03-02T08:29:43;10.00;99.90
2721;DHT22;1368;49.484;11.112;2024-03-02T08:32:08;10.20;99.90
2721;DHT22;1368;49.484;11.112;2024-03-02T08:34:34;10.30;99.90
2721;DHT22;1368;49.484;11.112;2024-03-02T08:37:03;10.40;99.90
2721;DHT22;1368;49.484;11.112;2024-03-02T08:39:29;10.60;99.90
2721;DHT22;1368;49.484;11.112;2024-03-02T08:41:55;11.00;99.90
2721;DHT22;1368;49.484;11.112;2024-03-02T08:44:21;11.70;99.90
2721;DHT22;1368;49.484;11.112;2024-03-02T08:46:47;12.20;99.90
2721;DHT22;1368;49.484;11.112;2024-03-02T08:49:12;12.50;99.90
2721;DHT22;1368;49.484;11.112;2024-03-02T08:51:38;12.80;99.90
2721;DHT22;1368;49.484;11.112;2024-03-02T08:54:04;13.00;99.90
2721;DHT22;1368;49.484;11.112;2024-03-02T08:56:31;13.10;99.90
2721;DHT22;1368;49.484;11.112;2024-03-02T08:58:57;13.30;99.90
2721;DHT22;1368;49.484;11.112;2024-03-02T09:01:22;13.50;99.90
2721;DHT22;1368;49.484;11.112;2024-03-02T09:03:48;13.80;99.90
2721;DHT22;1368;49.484;11.112;2024-03-02T09:06:17;14.60;99.90
2721;DHT22;1368;49.484;11.112;2024-03-02T09:08:43;14.20;99.90
2721;DHT22;1368;49.484;11.112;2024-03-02T09:11:10;14.10;99.90
2721;DHT22;1368;49.484;11.112;2024-03-02T09:13:36;13.50;99.90
2721;DHT22;1368;49.484;11.112;2024-03-02T09:16:03;13.20;99.90
2721;DHT22;1368;49.484;11.112;2024-03-02T09:18:29;12.80;99.90
2721;DHT22;1368;49.484;11.112;2024-03-02T09:20:55;13.20;99.90
2721;DHT22;1368;49.484;11.112;2024-03-02T09:23:21;13.30;99.90
2721;DHT22;1368;49.484;11.112;2024-03-02T09:25:46;12.70;99.90
2721;DHT22;1368;49.484;11.112;2024-03-02T09:28:12;12.90;99.90
2721;DHT22;1368;49.484;11.112;2024-03-02T09:30:38;13.20;99.90
2721;DHT22;1368;49.484;11.112;2024-03-02T09:33:03;13.40;99.90
2721;DHT22;1368;49.484;11.112;2024-03-02T09:35:29;13.20;99.90
2721;DHT22;1368;49.484;11.112;2024-03-02T09:37:55;13.50;99.90
2721;DHT22;1368;49.484;11.112;2024-03-02T09:40:22;13.70;99.90
2721;DHT22;1368;49.484;11.112;2024-03-02T09:42:48;13.70;99.90
2721;DHT22;1368;49.484;11.112;2024-03-02T09:45:23;14.30;99.90
2721;DHT22;1368;49.484;11.112;2024-03-02T09:47:49;14.00;99.90
2721;DHT22;1368;49.484;11.112;2024-03-02T09:50:15;14.00;99.90
2721;DHT22;1368;49.484;11.112;2024-03-02T09:52:44;14.00;99.90
2721;DHT22;1368;49.484;11.112;2024-03-02T09:55:13;14.30;99.90
2721;DHT22;1368;49.484;11.112;2024-03-02T09:57:40;14.60;99.90
2721;DHT22;1368;49.484;11.112;2024-03-02T10:00:08;14.80;99.90
2721;DHT22;1368;49.484;11.112;2024-03-02T10:02:33;14.70;99.90
2721;DHT22;1368;49.484;11.112;2024-03-02T10:04:59;14.70;99.90
2721;DHT22;1368;49.484;11.112;2024-03-02T10:07:25;14.70;99.90
2721;DHT22;1368;49.484;11.112;2024-03-02T10:09:50;14.40;99.90
2721;DHT22;1368;49.484;11.112;2024-03-02T10:12:17;14.40;99.90
2721;DHT22;1368;49.484;11.112;2024-03-02T10:14:44;14.90;99.90
2721;DHT22;1368;49.484;11.112;2024-03-02T10:17:13;14.70;99.90
2721;DHT22;1368;49.484;11.112;2024-03-02T10:19:39;14.70;99.90
2721;DHT22;1368;49.484;11.112;2024-03-02T10:22:06;14.80;99.90
2721;DHT22;1368;49.484;11.112;2024-03-02T10:24:39;14.70;99.90
2721;DHT22;1368;49.484;11.112;2024-03-02T10:27:10;14.80;99.90
2721;DHT22;1368;49.484;11.112;2024-03-02T10:29:39;14.90;99.90
2721;DHT22;1368;49.484;11.112;2024-03-02T10:32:08;15.20;99.90
2721;DHT22;1368;49.484;11.112;2024-03-02T10:34:35;14.90;99.90
2721;DHT22;1368;49.484;11.112;2024-03-02T10:37:01;15.30;99.90
2721;DHT22;1368;49.484;11.112;2024-03-02T10:39:28;15.30;99.90
2721;DHT22;1368;49.484;11.112;2024-03-02T10:41:55;15.20;99.90
2721;DHT22;1368;49.484;11.112;2024-03-02T10:44:22;15.00;99.90
2721;DHT22;1368;49.484;11.112;2024-03-02T10:46:49;15.30;99.90
2721;DHT22;1368;49.484;11.112;2024-03-02T10:49:16;15.40;99.90
2721;DHT22;1368;49.484;11.112;2024-03-02T10:51:42;15.30;99.90
2721;DHT22;1368;49.484;11.112;2024-03-02T10:54:08;15.10;99.90
2721;DHT22;1368;49.484;11.112;2024-03-02T11:01:58;15.80;99.90
2721;DHT22;1368;49.484;11.112;2024-03-02T11:04:28;15.90;99.90
2721;DHT22;1368;49.484;11.112;2024-03-02T11:07:00;15.20;99.90
2721;DHT22;1368;49.484;11.112;2024-03-02T11:09:28;15.40;99.90
2721;DHT22;1368;49.484;11.112;2024-03-02T11:14:30;14.70;99.90
2721;DHT22;1368;49.484;11.112;2024-03-02T11:16:58;14.60;99.90
2721;DHT22;1368;49.484;11.112;2024-03-02T11:19:25;14.40;99.90
2721;DHT22;1368;49.484;11.112;2024-03-02T11:21:51;14.50;99.90
2721;DHT22;1368;49.484;11.112;2024-03-02T11:26:52;15.30;99.90
2721;DHT22;1368;49.484;11.112;2024-03-02T11:32:05;14.60;99.90
2721;DHT22;1368;49.484;11.112;2024-03-02T11:34:31;14.40;99.90
2721;DHT22;1368;49.484;11.112;2024-03-02T11:36:57;14.10;99.90
2721;DHT22;1368;49.484;11.112;2024-03-02T11:39:25;14.60;99.90
2721;DHT22;1368;49.484;11.112;2024-03-02T11:41:51;14.10;99.90
2721;DHT22;1368;49.484;11.112;2024-03-02T11:44:16;14.10;99.90
2721;DHT22;1368;49.484;11.112;2024-03-02T11:46:45;14.40;99.90
2721;DHT22;1368;49.484;11.112;2024-03-02T11:49:15;14.50;99.90
2721;DHT22;1368;49.484;11.112;2024-03-02T11:52:00;14.50;99.90
2721;DHT22;1368;49.484;11.112;2024-03-02T11:54:27;14.30;99.90
2721;DHT22;1368;49.484;11.112;2024-03-02T11:56:55;14.40;99.90
2721;DHT22;1368;49.484;11.112;2024-03-02T11:59:22;14.30;99.90
2721;DHT22;1368;49.484;11.112;2024-03-02T12:01:48;14.20;99.90
2721;DHT22;1368;49.484;11.112;2024-03-02T12:04:14;14.30;99.90
2721;DHT22;1368;49.484;11.112;2024-03-02T12:06:40;14.10;99.90
2721;DHT22;1368;49.484;11.112;2024-03-02T12:09:09;13.90;99.90
2721;DHT22;1368;49.484;11.112;2024-03-02T12:11:37;13.80;99.90
2721;DHT22;1368;49.484;11.112;2024-03-02T12:14:03;14.00;99.90
2721;DHT22;1368;49.484;11.112;2024-03-02T12:16:29;14.00;99.90
2721;DHT22;1368;49.484;11.112;2024-03-02T12:18:55;13.70;99.90
2721;DHT22;1368;49.484;11.112;2024-03-02T12:21:21;14.00;99.90
2721;DHT22;1368;49.484;11.112;2024-03-02T12:23:46;14.30;99.90
2721;DHT22;1368;49.484;11.112;2024-03-02T12:26:12;14.60;99.90
2721;DHT22;1368;49.484;11.112;2024-03-02T12:28:38;14.20;99.90
2721;DHT22;1368;49.484;11.112;2024-03-02T12:31:03;14.00;99.90
2721;DHT22;1368;49.484;11.112;2024-03-02T12:33:29;13.80;99.90
2721;DHT22;1368;49.484;11.112;2024-03-02T12:35:57;14.20;99.90
2721;DHT22;1368;49.484;11.112;2024-03-02T12:38:23;13.60;99.90
2721;DHT22;1368;49.484;11.112;2024-03-02T12:40:51;13.60;99.90
2721;DHT22;1368;49.484;11.112;2024-03-02T12:43:17;13.50;99.90
2721;DHT22;1368;49.484;11.112;2024-03-02T12:45:43;13.50;99.90
2721;DHT22;1368;49.484;11.112;2024-03-02T12:48:09;13.90;99.90
2721;DHT22;1368;49.484;11.112;2024-03-02T12:50:34;13.10;99.90
2721;DHT22;1368;49.484;11.112;2024-03-02T12:53:00;13.30;99.90
2721;DHT22;1368;49.484;11.112;2024-03-02T12:55:26;13.60;99.90
2721;DHT22;1368;49.484;11.112;2024-03-02T12:57:52;13.90;99.90
2721;DHT22;1368;49.484;11.112;2024-03-02T13:00:19;14.10;99.90
2721;DHT22;1368;49.484;11.112;2024-03-02T13:02:46;14.60;99.90
2721;DHT22;1368;49.484;11.112;2024-03-02T13:05:12;14.10;99.90
2721;DHT22;1368;49.484;11.112;2024-03-02T13:07:39;14.50;99.90
2721;DHT22;1368;49.484;11.112;2024-03-02T13:10:06;13.90;99.90
2721;DHT22;1368;49.484;11.112;2024-03-02T13:12:35;13.80;99.90
2721;DHT22;1368;49.484;11.112;2024-03-02T13:15:02;13.60;99.90
2721;DHT22;1368;49.484;11.112;2024-03-02T13:17:29;13.50;99.90
2721;DHT22;1368;49.484;11.112;2024-03-02T13:19:58;13.40;99.90
2721;DHT22;1368;49.484;11.112;2024-03-02T13:22:24;13.60;99.90
2721;DHT22;1368;49.484;11.112;2024-03-02T13:24:51;13.60;99.90
2721;DHT22;1368;49.484;11.112;2024-03-02T13:27:17;13.60;99.90
2721;DHT22;1368;49.484;11.112;2024-03-02T13:29:45;13.50;99.90
2721;DHT22;1368;49.484;11.112;2024-03-02T13:32:13;13.40;99.90
2721;DHT22;1368;49.484;11.112;2024-03-02T13:34:38;13.50;99.90
2721;DHT22;1368;49.484;11.112;2024-03-02T13:37:04;13.60;99.90
2721;DHT22;1368;49.484;11.112;2024-03-02T13:39:31;13.60;99.90
2721;DHT22;1368;49.484;11.112;2024-03-02T13:41:58;13.70;99.90
2721;DHT22;1368;49.484;11.112;2024-03-02T13:44:28;13.40;99.90
2721;DHT22;1368;49.484;11.112;2024-03-02T13:46:53;13.60;99.90
2721;DHT22;1368;49.484;11.112;2024-03-02T13:49:19;14.40;99.90
2721;DHT22;1368;49.484;11.112;2024-03-02T13:51:44;14.00;99.90
2721;DHT22;1368;49.484;11.112;2024-03-02T13:54:11;14.00;99.90
2721;DHT22;1368;49.484;11.112;2024-03-02T13:56:37;14.10;99.90
2721;DHT22;1368;49.484;11.112;2024-03-02T13:59:04;14.00;99.90
2721;DHT22;1368;49.484;11.112;2024-03-02T14:01:31;13.90;99.90
2721;DHT22;1368;49.484;11.112;2024-03-02T14:03:58;13.80;99.90
2721;DHT22;1368;49.484;11.112;2024-03-02T14:06:23;13.80;99.90
2721;DHT22;1368;49.484;11.112;2024-03-02T14:08:50;14.20;99.90
2721;DHT22;1368;49.484;11.112;2024-03-02T14:11:16;14.00;99.90
2721;DHT22;1368;49.484;11.112;2024-03-02T14:13:42;14.10;99.90
2721;DHT22;1368;49.484;11.112;2024-03-02T14:16:10;14.80;99.90
2721;DHT22;1368;49.484;11.112;2024-03-02T14:18:36;14.00;99.90
2721;DHT22;1368;49.484;11.112;2024-03-02T14:21:01;14.00;99.90
2721;DHT22;1368;49.484;11.112;2024-03-02T14:23:28;13.90;99.90
2721;DHT22;1368;49.484;11.112;2024-03-02T14:25:55;13.80;99.90
2721;DHT22;1368;49.484;11.112;2024-03-02T14:28:20;13.90;99.90
2721;DHT22;1368;49.484;11.112;2024-03-02T14:30:46;14.20;99.90
2721;DHT22;1368;49.484;11.112;2024-03-02T14:33:11;14.20;99.90
2721;DHT22;1368;49.484;11.112;2024-03-02T14:35:39;14.50;99.90
2721;DHT22;1368;49.484;11.112;2024-03-02T14:38:04;14.20;99.90
2721;DHT22;1368;49.484;11.112;2024-03-02T14:40:30;14.10;99.90
2721;DHT22;1368;49.484;11.112;2024-03-02T14:42:56;14.00;99.90
2721;DHT22;1368;49.484;11.112;2024-03-02T14:45:21;13.90;99.90
2721;DHT22;1368;49.484;11.112;2024-03-02T14:47:47;14.00;99.90
2721;DHT22;1368;49.484;11.112;2024-03-02T14:50:12;14.40;99.90
2721;DHT22;1368;49.484;11.112;2024-03-02T14:52:38;14.10;99.90
2721;DHT22;1368;49.484;11.112;2024-03-02T14:55:04;14.00;99.90
2721;DHT22;1368;49.484;11.112;2024-03-02T14:57:32;13.90;99.90
2721;DHT22;1368;49.484;11.112;2024-03-02T14:59:58;13.60;99.90
2721;DHT22;1368;49.484;11.112;2024-03-02T15:02:23;13.60;99.90
2721;DHT22;1368;49.484;11.112;2024-03-02T15:04:49;13.60;99.90
2721;DHT22;1368;49.484;11.112;2024-03-02T15:07:14;13.60;99.90
2721;DHT22;1368;49.484;11.112;2024-03-02T15:09:41;13.30;99.90
2721;DHT22;1368;49.484;11.112;2024-03-02T15:12:07;14.00;99.90
2721;DHT22;1368;49.484;11.112;2024-03-02T15:14:36;13.20;99.90
2721;DHT22;1368;49.484;11.112;2024-03-02T15:17:03;13.00;99.90
2721;DHT22;1368;49.484;11.112;2024-03-02T15:19:29;13.50;99.90
2721;DHT22;1368;49.484;11.112;2024-03-02T15:21:55;12.90;99.90
2721;DHT22;1368;49.484;11.112;2024-03-02T15:24:20;13.40;99.90
2721;DHT22;1368;49.484;11.112;2024-03-02T15:26:46;12.70;99.90
2721;DHT22;1368;49.484;11.112;2024-03-02T15:29:11;12.80;99.90
2721;DHT22;1368;49.484;11.112;2024-03-02T15:31:37;12.70;99.90
2721;DHT22;1368;49.484;11.112;2024-03-02T15:34:02;12.50;99.90
2721;DHT22;1368;49.484;11.112;2024-03-02T15:36:28;12.80;99.90
2721;DHT22;1368;49.484;11.112;2024-03-02T15:38:53;12.30;99.90
2721;DHT22;1368;49.484;11.112;2024-03-02T15:41:19;12.20;99.90
2721;DHT22;1368;49.484;11.112;2024-03-02T15:43:44;11.90;99.90
2721;DHT22;1368;49.484;11.112;2024-03-02T15:46:10;11.70;99.90
2721;DHT22;1368;49.484;11.112;2024-03-02T15:48:36;11.50;99.90
2721;DHT22;1368;49.484;11.112;2024-03-02T15:51:01;11.40;99.90
2721;DHT22;1368;49.484;11.112;2024-03-02T15:53:29;11.20;99.90
2721;DHT22;1368;49.484;11.112;2024-03-02T15:55:55;11.10;99.90
2721;DHT22;1368;49.484;11.112;2024-03-02T15:58:20;11.10;99.90
2721;DHT22;1368;49.484;11.112;2024-03-02T16:00:46;10.90;99.90